Time;durP1;ratioP1;P1;durP2;ratioP2;P2;SDS_P1;SDS_P2;PMS_P1;PMS_P2;Temp;Humidity;BMP_temperature;BMP_pressure;BME280_temperature;BME280_humidity;BME280_pressure;Samples;Min_cycle;Max_cycle;Signal;HPM_P1;HPM_P2
2022/06/05 00:01:36;;;;;;;1.90;1.90;;;24.70;63.40;;;;;;5050459;28;20436;-77
2022/06/05 00:04:33;;;;;;;1.60;1.60;;;24.80;63.20;;;;;;5050334;28;20196;-77
2022/06/05 00:07:34;;;;;;;2.20;2.10;;;24.40;61.80;;;;;;5050468;28;20434;-77
2022/06/05 00:10:04;;;;;;;2.13;2.03;;;25.60;62.50;;;;;;5032407;28;20992;-77
2022/06/05 00:12:39;;;;;;;2.27;2.27;;;24.80;63.70;;;;;;5032170;28;20422;-76
2022/06/05 00:15:06;;;;;;;1.90;1.80;;;24.40;63.20;;;;;;5049048;28;20461;-77
2022/06/05 00:17:31;;;;;;;2.10;2.10;;;24.40;63.20;;;;;;5032041;28;20473;-76
2022/06/05 00:19:57;;;;;;;1.90;1.83;;;24.30;63.30;;;;;;5055974;28;20505;-77
2022/06/05 00:22:22;;;;;;;2.60;2.50;;;25.30;64.00;;;;;;5064822;28;20607;-77
2022/06/05 00:24:48;;;;;;;2.10;2.00;;;24.60;63.90;;;;;;5044409;28;20238;-77
2022/06/05 00:27:28;;;;;;;3.27;2.53;;;24.60;63.80;;;;;;5050596;28;20177;-77
2022/06/05 00:30:05;;;;;;;2.03;2.03;;;24.40;62.30;;;;;;5049763;28;20192;-77
2022/06/05 00:32:37;;;;;;;2.20;2.03;;;24.60;63.80;;;;;;5049961;28;20767;-76
2022/06/05 00:35:04;;;;;;;1.97;1.87;;;24.20;63.50;;;;;;5050015;28;20478;-77
2022/06/05 00:37:41;;;;;;;6.80;2.23;;;24.30;63.50;;;;;;5049993;28;20411;-77
2022/06/05 00:40:44;;;;;;;1.47;1.47;;;24.80;64.00;;;;;;5049988;28;20523;-77
2022/06/05 00:43:13;;;;;;;2.00;2.00;;;24.30;62.30;;;;;;5050037;28;20414;-77
2022/06/05 00:45:39;;;;;;;1.70;1.70;;;24.70;64.10;;;;;;5049649;28;20652;-77
2022/06/05 00:48:07;;;;;;;1.50;1.50;;;24.70;63.80;;;;;;5049843;28;20465;-77
2022/06/05 00:50:33;;;;;;;1.53;1.43;;;24.40;64.00;;;;;;5049462;28;20954;-77
2022/06/05 00:53:01;;;;;;;2.20;2.10;;;24.70;63.80;;;;;;5049967;28;20419;-77
2022/06/05 00:55:35;;;;;;;2.60;2.50;;;24.50;63.70;;;;;;5049706;28;20413;-77
2022/06/05 00:58:01;;;;;;;1.80;1.80;;;25.50;64.40;;;;;;5049398;28;20487;-77
2022/06/05 01:00:33;;;;;;;2.53;2.33;;;24.50;63.70;;;;;;5049217;28;20556;-77
2022/06/05 01:03:02;;;;;;;1.80;1.80;;;24.50;63.80;;;;;;5049629;28;20280;-77
2022/06/05 01:05:28;;;;;;;1.77;1.67;;;24.50;63.60;;;;;;5049423;28;20616;-77
2022/06/05 01:07:54;;;;;;;2.23;1.97;;;24.40;63.70;;;;;;5049472;28;20407;-77
2022/06/05 01:10:24;;;;;;;2.00;1.90;;;24.70;63.80;;;;;;5049507;28;20199;-77
2022/06/05 01:13:02;;;;;;;2.30;2.20;;;24.60;63.70;;;;;;5048258;28;20419;-77
2022/06/05 01:16:03;;;;;;;1.63;1.63;;;24.40;62.40;;;;;;5031373;28;20421;-77
2022/06/05 01:18:35;;;;;;;2.30;2.20;;;24.30;62.30;;;;;;5049450;28;20446;-77
2022/06/05 01:21:30;;;;;;;2.00;1.90;;;24.70;63.90;;;;;;5063877;28;20591;-77
2022/06/05 01:24:11;;;;;;;1.70;1.70;;;24.80;64.00;;;;;;5061447;28;20842;-77
2022/06/05 01:26:42;;;;;;;1.90;1.90;;;24.30;62.20;;;;;;5052434;28;20442;-77
2022/06/05 01:29:22;;;;;;;1.60;1.60;;;24.70;85.20;;;;;;5055772;28;21110;-77
2022/06/05 01:31:55;;;;;;;2.17;2.07;;;24.60;63.60;;;;;;5056026;28;20391;-77
2022/06/05 01:34:31;;;;;;;2.17;2.00;;;24.50;63.50;;;;;;5038138;28;20484;-77
2022/06/05 01:37:12;;;;;;;1.77;1.67;;;24.60;63.90;;;;;;5038041;28;20828;-77
2022/06/05 01:39:55;;;;;;;1.63;1.60;;;24.30;62.20;;;;;;5055857;28;20430;-77
2022/06/05 01:42:27;;;;;;;1.73;1.73;;;24.30;62.20;;;;;;5055719;28;20429;-77
2022/06/05 01:44:58;;;;;;;2.10;1.83;;;24.40;86.00;;;;;;5055314;28;20486;-77
2022/06/05 01:47:27;;;;;;;2.57;2.47;;;24.30;63.80;;;;;;5055689;28;20407;-77
2022/06/05 01:49:57;;;;;;;2.23;2.13;;;24.40;64.00;;;;;;5055362;28;20987;-76
2022/06/05 01:52:37;;;;;;;1.83;1.83;;;24.70;64.00;;;;;;5055059;28;20426;-77
2022/06/05 01:55:28;;;;;;;1.80;1.80;;;24.50;63.90;;;;;;5055519;28;20501;-77
2022/06/05 01:57:59;;;;;;;2.27;2.17;;;24.30;63.20;;;;;;5055746;28;20430;-77
2022/06/05 02:00:24;;;;;;;2.07;1.97;;;24.50;85.30;;;;;;5055272;28;20430;-77
2022/06/05 02:03:06;;;;;;;2.10;2.07;;;24.50;64.10;;;;;;5055873;28;20933;-77
2022/06/05 02:05:46;;;;;;;1.80;1.70;;;24.40;62.60;;;;;;5053648;28;20207;-77
2022/06/05 02:08:31;;;;;;;1.80;1.70;;;24.30;63.80;;;;;;5055561;28;20417;-77
2022/06/05 02:10:59;;;;;;;1.80;1.80;;;24.30;64.10;;;;;;5037079;28;20434;-77
2022/06/05 02:13:25;;;;;;;1.90;1.80;;;24.50;63.90;;;;;;5037112;28;20414;-77
2022/06/05 02:15:51;;;;;;;1.57;1.57;;;24.60;64.30;;;;;;5055249;28;20898;-77
2022/06/05 02:18:17;;;;;;;2.00;2.00;;;24.50;86.50;;;;;;5055629;28;20589;-77
2022/06/05 02:20:44;;;;;;;2.00;2.00;;;24.60;64.60;;;;;;5067255;28;20585;-77
2022/06/05 02:23:16;;;;;;;1.77;1.77;;;24.30;64.50;;;;;;5075413;28;20196;-77
2022/06/05 02:25:42;;;;;;;2.10;2.00;;;24.80;64.70;;;;;;5073650;28;20799;-77
2022/06/05 02:28:12;;;;;;;2.43;2.33;;;24.50;64.50;;;;;;5075298;28;20470;-77
2022/06/05 02:31:04;;;;;;;2.10;2.00;;;24.30;64.50;;;;;;5066593;28;20446;-76
2022/06/05 02:33:39;;;;;;;1.83;1.73;;;24.30;64.50;;;;;;5037163;28;20415;-77
2022/06/05 02:36:26;;;;;;;2.17;2.07;;;24.00;62.90;;;;;;5055184;28;20485;-76
2022/06/05 02:39:10;;;;;;;2.00;2.00;;;24.40;63.20;;;;;;5052267;28;20785;-77
2022/06/05 02:41:45;;;;;;;2.40;2.30;;;24.30;63.10;;;;;;5051776;28;20462;-77
2022/06/05 02:44:32;;;;;;;2.00;1.90;;;24.60;65.00;;;;;;5051480;28;20858;-77
2022/06/05 02:47:19;;;;;;;2.00;1.90;;;24.30;63.10;;;;;;5052216;28;20395;-76
2022/06/05 02:49:57;;;;;;;2.10;2.10;;;24.70;64.70;;;;;;5051844;28;20766;-77
2022/06/05 02:52:23;;;;;;;1.93;1.93;;;24.30;63.20;;;;;;5051721;28;20395;-77
2022/06/05 02:54:59;;;;;;;2.30;2.20;;;24.20;64.60;;;;;;5051468;28;20402;-77
2022/06/05 02:57:25;;;;;;;2.47;2.27;;;24.80;64.80;;;;;;5051708;28;20453;-77
2022/06/05 02:59:50;;;;;;;2.57;2.47;;;24.50;64.80;;;;;;5051342;28;20479;-77
2022/06/05 03:05:00;;;;;;;2.83;2.63;;;25.60;64.50;;;;;;5051456;28;20220;-77
2022/06/05 03:07:26;;;;;;;2.17;2.17;;;24.30;63.90;;;;;;5051526;28;20459;-77
2022/06/05 03:09:51;;;;;;;1.80;1.80;;;24.50;64.90;;;;;;5051471;28;20216;-77
2022/06/05 03:12:17;;;;;;;2.40;2.20;;;24.30;64.80;;;;;;5050983;28;20242;-77
2022/06/05 03:14:42;;;;;;;1.90;1.80;;;24.30;64.70;;;;;;5051359;28;20211;-77
2022/06/05 03:17:08;;;;;;;2.33;2.23;;;24.50;64.90;;;;;;5050832;28;20211;-77
2022/06/05 03:19:33;;;;;;;2.17;2.07;;;24.30;64.90;;;;;;5053906;28;20246;-77
2022/06/05 03:21:59;;;;;;;2.47;2.37;;;24.50;65.00;;;;;;5071048;28;20171;-77
2022/06/05 03:24:25;;;;;;;2.83;2.67;;;24.50;65.00;;;;;;5071043;28;20200;-77
2022/06/05 03:26:53;;;;;;;2.30;2.20;;;24.60;65.10;;;;;;5071234;28;20429;-77
2022/06/05 03:29:20;;;;;;;2.40;2.30;;;24.90;63.80;;;;;;5050813;28;20191;-77
2022/06/05 03:31:46;;;;;;;2.13;2.03;;;24.50;65.10;;;;;;5051181;28;20441;-77
2022/06/05 03:34:12;;;;;;;5.97;2.33;;;24.30;86.80;;;;;;5051151;28;20501;-77
2022/06/05 03:36:37;;;;;;;1.97;1.90;;;24.50;65.00;;;;;;5051329;28;20176;-77
2022/06/05 03:39:03;;;;;;;2.20;2.20;;;24.40;86.00;;;;;;5051350;28;20658;-77
2022/06/05 03:41:29;;;;;;;2.33;2.23;;;24.20;65.10;;;;;;5050632;28;20176;-77
2022/06/05 03:43:54;;;;;;;2.57;2.37;;;24.80;65.40;;;;;;5050474;28;20979;-77
2022/06/05 03:46:20;;;;;;;2.27;2.17;;;25.30;65.80;;;;;;5050545;28;20187;-77
2022/06/05 03:48:46;;;;;;;2.27;2.20;;;24.50;65.10;;;;;;5050714;28;20194;-77
2022/06/05 03:51:18;;;;;;;2.60;2.50;;;23.90;65.00;;;;;;5049353;28;20283;-77
2022/06/05 03:53:44;;;;;;;2.20;2.10;;;24.30;65.40;;;;;;5050732;28;20226;-77
2022/06/05 03:56:13;;;;;;;2.50;2.40;;;24.50;65.60;;;;;;5050522;28;20418;-77
2022/06/05 03:58:39;;;;;;;2.20;2.10;;;25.60;66.30;;;;;;5050429;28;20427;-77
2022/06/05 04:01:09;;;;;;;3.93;2.70;;;25.70;66.50;;;;;;5050279;28;20830;-77
2022/06/05 04:03:35;;;;;;;2.17;2.07;;;24.20;65.80;;;;;;5050421;28;20173;-77
2022/06/05 04:06:00;;;;;;;2.20;2.10;;;24.70;66.00;;;;;;5049856;28;20459;-77
2022/06/05 04:08:26;;;;;;;2.43;2.23;;;24.20;65.70;;;;;;5050703;28;20668;-77
2022/06/05 04:10:52;;;;;;;2.17;2.10;;;24.70;65.80;;;;;;5032031;28;20665;-77
2022/06/05 04:13:18;;;;;;;2.00;1.90;;;;;;;;;;5050338;28;21060;-78
2022/06/05 04:15:43;;;;;;;2.50;2.40;;;24.40;63.90;;;;;;5050058;28;20591;-77
2022/06/05 04:18:09;;;;;;;2.60;2.50;;;;;;;;;;5049996;28;20477;-77
2022/06/05 04:20:38;;;;;;;2.03;2.03;;;24.30;63.90;;;;;;5060928;28;20199;-77
2022/06/05 04:23:04;;;;;;;2.60;2.40;;;24.70;66.10;;;;;;5070106;28;20504;-78
2022/06/05 04:25:30;;;;;;;3.13;2.30;;;24.30;66.20;;;;;;5069879;28;20552;-77
2022/06/05 04:27:56;;;;;;;2.57;2.37;;;24.30;65.20;;;;;;5070345;28;20183;-77
2022/06/05 04:30:25;;;;;;;2.33;2.27;;;24.70;66.10;;;;;;5060497;28;20608;-78
2022/06/05 04:32:50;;;;;;;2.83;2.73;;;24.50;65.90;;;;;;5049890;28;20756;-77
2022/06/05 04:35:16;;;;;;;2.07;1.97;;;24.50;66.00;;;;;;5032116;28;20557;-77
2022/06/05 04:37:42;;;;;;;1.93;1.93;;;25.10;66.80;;;;;;5049791;28;20217;-77
2022/06/05 04:40:08;;;;;;;2.60;2.50;;;24.70;66.40;;;;;;5049836;28;20199;-77
2022/06/05 04:42:33;;;;;;;3.33;2.67;;;24.30;65.40;;;;;;5031465;28;20608;-77
2022/06/05 04:45:00;;;;;;;2.70;2.50;;;24.40;66.00;;;;;;5049349;28;20462;-77
2022/06/05 04:47:26;;;;;;;2.63;2.43;;;24.80;66.40;;;;;;5049626;28;20256;-77
2022/06/05 04:49:51;;;;;;;2.40;2.30;;;24.40;66.50;;;;;;5049891;28;20522;-77
2022/06/05 04:52:17;;;;;;;2.17;2.07;;;24.70;66.70;;;;;;5049337;28;20177;-77
2022/06/05 04:54:42;;;;;;;2.97;2.80;;;24.20;66.20;;;;;;5049684;28;20176;-77
2022/06/05 04:57:08;;;;;;;2.50;2.40;;;24.70;66.60;;;;;;5049166;28;20275;-77
2022/06/05 04:59:33;;;;;;;2.33;2.33;;;24.70;66.70;;;;;;5049317;28;20258;-77
2022/06/05 05:01:59;;;;;;;2.17;2.10;;;24.40;66.40;;;;;;5048721;28;20211;-77
2022/06/05 05:04:25;;;;;;;2.53;2.43;;;24.50;66.50;;;;;;5049556;28;20204;-77
2022/06/05 05:06:50;;;;;;;2.40;2.30;;;24.50;66.70;;;;;;5049638;28;20200;-77
2022/06/05 05:09:16;;;;;;;2.60;2.50;;;;;;;;;;5049498;28;20226;-77
2022/06/05 05:11:43;;;;;;;2.70;2.17;;;24.30;64.60;;;;;;5048889;28;20294;-77
2022/06/05 05:14:10;;;;;;;2.20;2.00;;;24.70;66.90;;;;;;5049111;28;20837;-77
2022/06/05 05:16:36;;;;;;;2.17;2.17;;;24.30;66.60;;;;;;5031037;28;20438;-77
2022/06/05 05:19:01;;;;;;;2.80;2.70;;;24.50;86.10;;;;;;5049560;28;20789;-77
2022/06/05 05:21:28;;;;;;;6.00;2.53;;;24.60;67.00;;;;;;5067335;28;20552;-77
2022/06/05 05:23:54;;;;;;;2.17;2.10;;;24.70;66.90;;;;;;5068851;28;20414;-77
2022/06/05 05:26:28;;;;;;;2.23;2.13;;;24.60;66.90;;;;;;5030528;28;20509;-77
2022/06/05 05:28:55;;;;;;;2.73;2.63;;;24.30;65.40;;;;;;5049045;28;20417;-77
2022/06/05 05:31:24;;;;;;;2.43;2.23;;;24.50;67.10;;;;;;5048638;28;20449;-77
2022/06/05 05:33:51;;;;;;;2.33;2.20;;;24.60;66.70;;;;;;5031369;28;20414;-77
2022/06/05 05:36:20;;;;;;;3.43;3.13;;;24.90;66.90;;;;;;5049129;28;20763;-77
2022/06/05 05:44:17;;;;;;;2.27;2.17;;;24.60;67.00;;;;;;5049116;28;20949;-77
2022/06/05 05:46:43;;;;;;;2.47;2.37;;;25.00;67.50;;;;;;5049071;28;20415;-77
2022/06/05 05:49:10;;;;;;;2.30;2.30;;;24.20;88.80;;;;;;5049011;28;20415;-77
2022/06/05 05:51:36;;;;;;;2.37;2.27;;;24.80;67.40;;;;;;5048698;28;20427;-77
2022/06/05 05:54:03;;;;;;;2.43;2.33;;;24.50;67.30;;;;;;5048793;28;20913;-77
2022/06/05 05:56:29;;;;;;;2.60;2.50;;;24.40;89.80;;;;;;5030522;28;20913;-77
2022/06/05 05:58:55;;;;;;;2.57;2.47;;;24.30;67.90;;;;;;5049231;28;20495;-77
2022/06/05 06:01:20;;;;;;;2.60;2.50;;;24.70;67.70;;;;;;5048345;28;20541;-77
2022/06/05 06:03:46;;;;;;;2.40;2.30;;;23.50;67.10;;;;;;5049197;28;20208;-77
2022/06/05 06:06:11;;;;;;;2.20;2.10;;;25.70;68.60;;;;;;5048968;28;20204;-77
2022/06/05 06:08:37;;;;;;;2.37;2.23;;;24.60;67.70;;;;;;5048433;28;20641;-77
2022/06/05 06:11:02;;;;;;;2.40;2.30;;;24.30;67.50;;;;;;5048635;28;20242;-77
2022/06/05 06:13:29;;;;;;;2.70;2.60;;;24.60;89.60;;;;;;5049872;28;20185;-77
2022/06/05 06:15:55;;;;;;;2.47;2.37;;;24.40;67.30;;;;;;5052347;28;20187;-77
2022/06/05 06:18:20;;;;;;;2.47;1.87;;;24.90;67.80;;;;;;5052632;28;20410;-77
2022/06/05 06:20:46;;;;;;;2.30;2.10;;;24.40;67.70;;;;;;5064695;28;20662;-77
2022/06/05 06:23:12;;;;;;;2.90;2.80;;;24.50;67.50;;;;;;5058453;28;20191;-77
2022/06/05 06:25:38;;;;;;;2.07;1.97;;;24.30;67.30;;;;;;5052253;28;20219;-77
2022/06/05 06:28:05;;;;;;;2.50;2.40;;;24.30;67.50;;;;;;5034354;28;20444;-77
2022/06/05 06:30:33;;;;;;;2.73;2.63;;;24.20;67.40;;;;;;5051827;28;20504;-77
2022/06/05 06:32:59;;;;;;;2.37;2.27;;;24.30;67.50;;;;;;5052230;28;20427;-77
2022/06/05 06:35:25;;;;;;;1.90;1.90;;;24.40;67.40;;;;;;5052263;28;20461;-77
2022/06/05 06:37:50;;;;;;;2.93;2.83;;;24.30;67.50;;;;;;5051982;28;20887;-77
2022/06/05 06:40:16;;;;;;;3.23;2.47;;;24.90;68.00;;;;;;5051939;28;20699;-77
2022/06/05 06:42:42;;;;;;;2.50;2.40;;;24.50;67.70;;;;;;5051784;28;20397;-77
2022/06/05 06:45:08;;;;;;;2.30;2.20;;;24.30;67.70;;;;;;5051566;28;20207;-77
2022/06/05 06:47:34;;;;;;;3.00;2.80;;;24.30;68.30;;;;;;5051980;28;20686;-77
2022/06/05 06:49:59;;;;;;;2.57;2.47;;;24.50;68.00;;;;;;5034072;28;20495;-77
2022/06/05 06:52:25;;;;;;;2.60;2.50;;;24.30;68.00;;;;;;5051454;28;20214;-77
2022/06/05 06:54:52;;;;;;;7.53;2.70;;;24.30;68.10;;;;;;5051733;28;20271;-77
2022/06/05 06:57:18;;;;;;;2.67;2.57;;;24.20;67.90;;;;;;5051768;28;20775;-77
2022/06/05 06:59:43;;;;;;;2.60;2.40;;;25.90;69.10;;;;;;5051454;28;20485;-77
2022/06/05 07:02:09;;;;;;;2.63;2.53;;;24.30;68.00;;;;;;5051607;28;20550;-76
2022/06/05 07:04:34;;;;;;;2.37;2.27;;;24.20;67.90;;;;;;5051342;28;20203;-77
2022/06/05 07:07:00;;;;;;;2.80;2.70;;;24.30;68.00;;;;;;5051532;28;20199;-77
2022/06/05 07:09:26;;;;;;;2.57;2.47;;;24.50;67.90;;;;;;5047287;28;20197;-77
2022/06/05 07:11:51;;;;;;;2.43;2.23;;;24.20;68.20;;;;;;5045556;28;20212;-77
2022/06/05 07:14:17;;;;;;;3.17;3.07;;;;;;;;;;5050004;28;20267;-77
2022/06/05 07:16:43;;;;;;;2.30;2.17;;;24.30;66.20;;;;;;5051029;28;20204;-77
2022/06/05 07:19:09;;;;;;;2.70;2.60;;;24.60;90.00;;;;;;5051403;28;20516;-77
2022/06/05 07:21:35;;;;;;;2.50;2.40;;;24.20;68.20;;;;;;5070628;28;20422;-77
2022/06/05 07:24:01;;;;;;;2.53;2.40;;;24.30;68.60;;;;;;5071280;28;20172;-77
2022/06/05 07:26:31;;;;;;;2.50;2.30;;;24.30;67.80;;;;;;5053079;28;20271;-77
2022/06/05 07:28:58;;;;;;;2.17;2.07;;;24.20;68.40;;;;;;5051392;28;20653;-77
2022/06/05 07:31:26;;;;;;;2.30;2.20;;;23.90;67.80;;;;;;5042253;28;20455;-77
2022/06/05 07:33:52;;;;;;;2.30;2.20;;;25.50;69.10;;;;;;5044252;28;20458;-77
2022/06/05 07:36:20;;;;;;;2.40;2.30;;;24.30;67.40;;;;;;5049962;28;20446;-77
2022/06/05 07:38:46;;;;;;;1.43;1.43;;;24.20;68.20;;;;;;5049795;28;20179;-77
2022/06/05 07:41:20;;;;;;;2.23;2.13;;;24.30;68.30;;;;;;5050773;28;20458;-77
2022/06/05 07:43:46;;;;;;;2.67;2.47;;;24.30;68.10;;;;;;5033078;28;20168;-77
2022/06/05 07:46:12;;;;;;;3.50;1.80;;;24.30;68.60;;;;;;5027411;28;20516;-77
2022/06/05 07:48:38;;;;;;;2.20;2.10;;;24.30;68.40;;;;;;5050041;28;20854;-77
2022/06/05 07:56:46;;;;;;;1.90;1.90;;;24.30;68.30;;;;;;5049994;28;20402;-77
2022/06/05 07:59:11;;;;;;;2.10;2.00;;;24.60;90.20;;;;;;5050454;28;20399;-77
2022/06/05 08:01:37;;;;;;;1.93;1.83;;;24.40;68.60;;;;;;5050115;28;20168;-77
2022/06/05 08:04:04;;;;;;;2.63;2.47;;;24.30;68.90;;;;;;5050218;28;20578;-77
2022/06/05 08:06:30;;;;;;;2.10;2.00;;;24.30;68.60;;;;;;5051018;28;20270;-77
2022/06/05 08:08:55;;;;;;;1.80;1.80;;;24.40;68.70;;;;;;5032536;28;20415;-77
2022/06/05 08:11:21;;;;;;;2.10;2.00;;;24.30;69.10;;;;;;5050288;28;20837;-77
2022/06/05 08:13:46;;;;;;;1.90;1.90;;;24.50;69.30;;;;;;5050371;28;20172;-77
2022/06/05 08:16:13;;;;;;;2.47;2.33;;;;;;;;;;5050086;28;20180;-77
2022/06/05 08:18:39;;;;;;;2.37;2.27;;;24.30;68.00;;;;;;5035697;28;20192;-77
2022/06/05 08:21:04;;;;;;;1.97;1.97;;;24.40;70.30;;;;;;5044569;28;20446;-77
2022/06/05 08:23:30;;;;;;;2.17;2.10;;;24.20;70.00;;;;;;5040682;28;20189;-77
2022/06/05 08:25:56;;;;;;;2.60;2.50;;;26.80;72.10;;;;;;5048963;28;20192;-77
2022/06/05 08:28:25;;;;;;;2.40;2.30;;;24.30;70.50;;;;;;5050060;28;20180;-77
2022/06/05 08:30:53;;;;;;;2.20;2.03;;;24.40;70.70;;;;;;5049484;28;20473;-77
2022/06/05 08:33:19;;;;;;;2.90;2.70;;;24.30;69.30;;;;;;5046127;28;20967;-77
2022/06/05 08:35:46;;;;;;;2.20;2.10;;;24.60;71.10;;;;;;5047505;28;20485;-77
2022/06/05 08:41:27;;;;;;;2.40;2.30;;;24.30;71.10;;;;;;5045726;28;20465;-77
2022/06/05 08:44:30;;;;;;;3.80;2.10;;;24.30;69.70;;;;;;5034756;28;20537;-77
2022/06/05 08:47:11;;;;;;;4.40;2.30;;;24.30;69.70;;;;;;5046063;28;20518;-77
2022/06/05 08:49:52;;;;;;;2.60;2.40;;;24.30;69.80;;;;;;5049203;28;20544;-78
2022/06/05 08:52:29;;;;;;;2.70;2.60;;;24.30;91.90;;;;;;5049612;28;20500;-77
2022/06/05 08:55:17;;;;;;;2.77;2.67;;;24.30;88.10;;;;;;5045839;28;20504;-77
2022/06/05 08:57:56;;;;;;;2.50;2.30;;;24.30;71.50;;;;;;5043318;28;20421;-77
2022/06/05 09:00:47;;;;;;;3.03;2.90;;;24.30;70.00;;;;;;5043603;28;20456;-77
2022/06/05 09:03:31;;;;;;;3.17;2.93;;;23.80;70.90;;;;;;5049285;28;20433;-77
2022/06/05 09:06:03;;;;;;;2.73;2.63;;;24.30;69.90;;;;;;5049115;28;20465;-77
2022/06/05 09:08:32;;;;;;;3.10;2.90;;;24.50;71.10;;;;;;5049256;28;20461;-77
2022/06/05 09:11:04;;;;;;;3.47;3.27;;;24.40;71.30;;;;;;5048897;28;20430;-77
2022/06/05 09:13:43;;;;;;;2.73;2.63;;;24.30;70.90;;;;;;5064444;28;20429;-77
2022/06/05 09:16:15;;;;;;;3.33;3.10;;;24.50;71.40;;;;;;5049921;28;20430;-77
2022/06/05 09:18:46;;;;;;;3.03;2.93;;;24.40;71.30;;;;;;5052888;28;20424;-77
2022/06/05 09:21:21;;;;;;;3.00;2.90;;;24.30;70.90;;;;;;5061313;28;20485;-77
2022/06/05 09:24:05;;;;;;;4.10;3.90;;;24.50;91.70;;;;;;5067411;28;20413;-77
2022/06/05 09:26:58;;;;;;;4.03;3.83;;;24.30;71.30;;;;;;5044500;28;20435;-77
2022/06/05 09:29:50;;;;;;;3.83;3.63;;;24.30;70.50;;;;;;5030451;28;20438;-77
2022/06/05 09:33:05;;;;;;;4.43;4.20;;;24.40;70.40;;;;;;5048968;28;20445;-78
2022/06/05 09:35:40;;;;;;;3.40;3.30;;;24.30;70.20;;;;;;5038186;28;20881;-78
2022/06/05 09:38:06;;;;;;;3.60;3.40;;;24.50;71.50;;;;;;5049236;28;20409;-78
2022/06/05 09:40:37;;;;;;;5.10;4.70;;;24.30;88.00;;;;;;5031107;28;20519;-77
2022/06/05 09:43:17;;;;;;;4.23;4.07;;;25.00;71.40;;;;;;5040674;28;20887;-78
2022/06/05 09:45:48;;;;;;;4.63;4.43;;;24.40;69.70;;;;;;5049519;28;20454;-78
2022/06/05 09:48:54;;;;;;;4.47;4.27;;;24.20;71.10;;;;;;5041395;28;20431;-78
2022/06/05 09:51:20;;;;;;;5.60;5.20;;;24.40;71.20;;;;;;5005461;28;21001;-78
2022/06/05 09:53:54;;;;;;;4.73;4.33;;;24.40;70.70;;;;;;5047289;28;20951;-78
2022/06/05 09:58:24;;;;;;;4.40;4.20;;;24.30;70.70;;;;;;5050229;28;20445;-78
2022/06/05 09:59:28;;;;;;;5.73;4.53;;;24.40;69.60;;;;;;5051653;28;20434;-78
2022/06/05 10:01:58;;;;;;;4.70;4.50;;;24.40;70.60;;;;;;5031050;28;20434;-78
2022/06/05 10:04:29;;;;;;;4.60;4.30;;;24.30;70.60;;;;;;5051494;28;20986;-78
2022/06/05 10:07:03;;;;;;;4.23;4.13;;;24.40;70.70;;;;;;5051709;28;20435;-77
2022/06/05 10:09:29;;;;;;;4.47;4.20;;;26.00;71.30;;;;;;5052438;28;20569;-78
2022/06/05 10:11:55;;;;;;;4.43;4.13;;;24.40;70.40;;;;;;5053584;28;20485;-77
2022/06/05 10:14:47;;;;;;;3.60;3.50;;;24.40;70.50;;;;;;5053889;28;20458;-78
2022/06/05 10:17:31;;;;;;;3.77;3.63;;;24.30;68.90;;;;;;5027154;28;20184;-78
2022/06/05 10:20:06;;;;;;;3.97;3.50;;;24.60;70.60;;;;;;5059273;28;20441;-78
2022/06/05 10:22:46;;;;;;;4.63;4.33;;;24.50;70.30;;;;;;5073475;28;20445;-78
2022/06/05 10:25:35;;;;;;;4.70;4.47;;;25.70;71.30;;;;;;5070840;28;20441;-78
2022/06/05 10:28:05;;;;;;;5.27;4.30;;;24.40;69.40;;;;;;5054473;28;20415;-78
2022/06/05 10:30:35;;;;;;;3.60;3.50;;;24.40;71.10;;;;;;5053722;28;20495;-78
2022/06/05 10:33:15;;;;;;;4.30;4.10;;;24.40;70.80;;;;;;5045717;28;20445;-78
2022/06/05 10:36:01;;;;;;;3.47;3.37;;;24.50;88.30;;;;;;5042376;28;20823;-78
2022/06/05 10:38:48;;;;;;;3.33;3.23;;;24.40;71.20;;;;;;5049459;28;20517;-78
2022/06/05 10:41:31;;;;;;;4.10;3.90;;;24.00;70.80;;;;;;5051069;28;20469;-77
2022/06/05 10:44:22;;;;;;;4.10;3.90;;;24.40;69.90;;;;;;5063603;28;20489;-78
2022/06/05 10:47:11;;;;;;;3.87;3.67;;;24.40;70.10;;;;;;5048567;28;21037;-77
2022/06/05 10:50:07;;;;;;;3.90;3.70;;;24.40;70.10;;;;;;5050655;28;20451;-77
2022/06/05 10:52:57;;;;;;;3.53;3.23;;;24.40;70.30;;;;;;5052026;28;20399;-78
2022/06/05 10:55:34;;;;;;;3.30;3.20;;;24.40;71.40;;;;;;5052571;28;20383;-78
2022/06/05 10:58:12;;;;;;;4.90;3.27;;;24.40;70.10;;;;;;5052300;28;20417;-78
2022/06/05 11:00:47;;;;;;;3.80;3.60;;;24.40;71.70;;;;;;5046503;28;20869;-78
2022/06/05 11:03:43;;;;;;;4.37;4.07;;;24.40;70.30;;;;;;5051021;28;20543;-78
2022/06/05 11:06:25;;;;;;;3.47;3.37;;;24.40;70.10;;;;;;5046708;28;20624;-78
2022/06/05 11:09:18;;;;;;;3.20;3.00;;;24.70;88.70;;;;;;5052607;28;20411;-78
2022/06/05 11:14:59;;;;;;;3.30;3.20;;;24.40;70.20;;;;;;5049721;28;20422;-78
2022/06/05 11:17:33;;;;;;;3.30;3.20;;;24.40;70.10;;;;;;5052131;28;20937;-78
2022/06/05 11:20:08;;;;;;;3.30;3.10;;;25.10;71.80;;;;;;5058024;28;20464;-78
2022/06/05 11:22:37;;;;;;;3.20;3.00;;;24.40;71.30;;;;;;5050370;28;20434;-78
2022/06/05 11:25:11;;;;;;;3.60;3.23;;;24.50;71.30;;;;;;5041786;28;20459;-78
2022/06/05 11:27:51;;;;;;;8.07;3.53;;;24.50;71.90;;;;;;5045403;28;20417;-78
2022/06/05 11:30:20;;;;;;;3.60;3.40;;;24.50;70.20;;;;;;5041642;28;20455;-78
2022/06/05 11:32:58;;;;;;;2.90;2.73;;;24.20;71.30;;;;;;5047796;28;20495;-78
2022/06/05 11:35:24;;;;;;;2.20;2.20;;;;;;;;;;5047121;28;20431;-78
2022/06/05 11:38:05;;;;;;;3.63;3.43;;;24.50;70.00;;;;;;5050283;28;20808;-78
2022/06/05 11:40:48;;;;;;;2.93;2.83;;;24.40;70.30;;;;;;5049279;28;20437;-78
2022/06/05 11:43:32;;;;;;;3.27;3.17;;;25.40;72.30;;;;;;5052509;28;20448;-78
2022/06/05 11:46:09;;;;;;;2.40;2.30;;;24.50;70.20;;;;;;5051940;28;20503;-77
2022/06/05 11:48:37;;;;;;;2.60;2.50;;;23.80;71.20;;;;;;5052576;28;20406;-78
2022/06/05 11:51:12;;;;;;;1.80;1.80;;;24.50;71.20;;;;;;5051482;28;20430;-78
2022/06/05 11:54:12;;;;;;;2.30;1.90;;;24.50;69.40;;;;;;5052001;28;20776;-78
2022/06/05 11:57:07;;;;;;;2.30;2.20;;;24.50;70.20;;;;;;5044361;28;21264;-78
2022/06/05 11:59:44;;;;;;;1.60;1.50;;;24.50;69.10;;;;;;5051541;28;20481;-78
2022/06/05 12:02:13;;;;;;;1.17;1.17;;;24.20;70.00;;;;;;5033268;28;20494;-78
2022/06/05 12:05:04;;;;;;;1.40;1.40;;;24.50;70.50;;;;;;5051801;28;20903;-78
2022/06/05 12:07:31;;;;;;;1.13;1.13;;;24.50;69.00;;;;;;5052237;28;20408;-78
2022/06/05 12:10:00;;;;;;;16.53;1.37;;;24.50;69.50;;;;;;5051431;28;20467;-78
2022/06/05 12:12:40;;;;;;;1.43;1.43;;;24.40;69.20;;;;;;5032890;28;20419;-78
2022/06/05 12:15:37;;;;;;;1.37;1.30;;;23.70;68.80;;;;;;5035500;28;20438;-78
2022/06/05 12:18:13;;;;;;;4.10;1.60;;;24.40;67.80;;;;;;5051501;28;20954;-78
2022/06/05 12:20:38;;;;;;;1.20;1.10;;;24.50;69.10;;;;;;5063395;28;20479;-78
2022/06/05 12:23:22;;;;;;;1.23;0.90;;;25.10;69.30;;;;;;5071720;28;20938;-78
2022/06/05 12:26:00;;;;;;;1.07;1.03;;;24.40;67.60;;;;;;5053781;28;20556;-78
2022/06/05 12:28:36;;;;;;;1.37;1.27;;;24.50;68.90;;;;;;5073490;28;20390;-78
2022/06/05 12:31:27;;;;;;;0.90;0.90;;;24.50;67.90;;;;;;5076672;28;20517;-78
2022/06/05 12:33:57;;;;;;;2.30;1.10;;;24.50;69.30;;;;;;5037726;28;20439;-78
2022/06/05 12:36:39;;;;;;;1.30;1.20;;;25.10;69.60;;;;;;5039497;28;20406;-78
2022/06/05 12:39:26;;;;;;;1.47;1.03;;;24.50;86.40;;;;;;5056345;28;20502;-78
2022/06/05 12:42:31;;;;;;;0.80;0.80;;;24.50;88.40;;;;;;5056520;28;20429;-78
2022/06/05 12:45:00;;;;;;;1.10;1.10;;;24.60;90.90;;;;;;5057865;28;20888;-78
2022/06/05 12:48:04;;;;;;;1.03;0.70;;;24.80;69.70;;;;;;5057518;28;20411;-78
2022/06/05 12:50:36;;;;;;;1.37;1.00;;;24.30;90.90;;;;;;5057722;28;20434;-78
2022/06/05 12:53:22;;;;;;;1.77;0.90;;;24.60;69.50;;;;;;5054536;28;20910;-78
2022/06/05 12:55:54;;;;;;;1.07;1.07;;;24.50;68.40;;;;;;5053063;28;20737;-80
2022/06/05 12:58:29;;;;;;;1.33;0.83;;;24.50;68.40;;;;;;5055775;28;20481;-78
2022/06/05 13:01:02;;;;;;;1.10;1.10;;;24.50;68.40;;;;;;5057527;28;20422;-78
2022/06/05 13:03:36;;;;;;;9.90;1.17;;;24.60;69.90;;;;;;5056985;28;20421;-78
2022/06/05 13:06:13;;;;;;;0.87;0.87;;;24.60;87.00;;;;;;5053282;28;20525;-78
2022/06/05 13:08:44;;;;;;;3.33;1.10;;;24.50;68.80;;;;;;5050044;28;20429;-78
2022/06/05 13:11:28;;;;;;;0.83;0.83;;;24.40;89.40;;;;;;5053781;28;20430;-78
2022/06/05 13:14:16;;;;;;;1.33;0.90;;;24.40;68.80;;;;;;5066871;28;20561;-78
2022/06/05 13:17:11;;;;;;;0.87;0.87;;;24.50;68.80;;;;;;5055738;28;20422;-78
2022/06/05 13:19:59;;;;;;;1.13;0.80;;;24.50;69.90;;;;;;5052930;28;20542;-78
2022/06/05 13:22:44;;;;;;;0.90;0.90;;;25.80;70.80;;;;;;5052830;28;20516;-78
2022/06/05 13:25:17;;;;;;;1.57;1.10;;;24.50;69.90;;;;;;5049343;28;20541;-78
2022/06/05 13:27:54;;;;;;;1.07;0.73;;;24.50;68.90;;;;;;5049756;28;20484;-78
2022/06/05 13:30:23;;;;;;;1.20;0.93;;;24.70;70.10;;;;;;5050218;28;20433;-78
2022/06/05 13:33:07;;;;;;;0.80;0.80;;;24.70;70.10;;;;;;5053872;28;20550;-78
2022/06/05 13:35:35;;;;;;;0.77;0.77;;;24.50;69.00;;;;;;5053532;28;20929;-78
2022/06/05 13:38:30;;;;;;;1.63;1.00;;;24.50;69.00;;;;;;5054176;28;20411;-78